createdAt,value
2023-04-26T00:00:37.797Z,14.07
2023-04-26T00:03:07.882Z,12.77
2023-04-26T00:05:38.158Z,14.18
2023-04-26T00:08:06.735Z,13.75
2023-04-26T00:10:35.030Z,12.45
2023-04-26T00:13:04.752Z,12.77
2023-04-26T00:15:35.780Z,13.38
2023-04-26T00:18:04.736Z,13.57
2023-04-26T00:20:33.044Z,14.63
2023-04-26T00:23:01.687Z,14.63
2023-04-26T00:25:30.310Z,14.32
2023-04-26T00:27:58.651Z,15.18
2023-04-26T00:30:28.401Z,13.48
2023-04-26T00:32:56.823Z,13.85
2023-04-26T00:35:25.630Z,13.32
2023-04-26T00:37:53.934Z,14.05
2023-04-26T00:40:22.567Z,13.07
2023-04-26T00:42:50.846Z,13.98
2023-04-26T00:45:19.213Z,15.68
2023-04-26T00:47:49.084Z,14.20
2023-04-26T00:50:17.473Z,14.57
2023-04-26T00:52:49.037Z,13.43
2023-04-26T00:55:17.716Z,12.80
2023-04-26T00:57:47.152Z,12.32
2023-04-26T01:00:17.230Z,13.27
2023-04-26T01:02:46.037Z,13.25
2023-04-26T01:05:16.270Z,13.95
2023-04-26T01:07:44.777Z,13.27
2023-04-26T01:10:13.276Z,13.90
2023-04-26T01:12:43.896Z,14.05
2023-04-26T01:15:13.168Z,14.68
2023-04-26T01:17:41.493Z,14.98
2023-04-26T01:20:12.515Z,14.90
2023-04-26T01:22:42.704Z,14.82
2023-04-26T01:25:13.400Z,15.13
2023-04-26T01:27:41.864Z,14.10
2023-04-26T01:30:11.124Z,13.13
2023-04-26T01:32:39.754Z,14.68
2023-04-26T01:35:08.489Z,13.63
2023-04-26T01:37:36.934Z,14.97
2023-04-26T01:40:08.082Z,13.80
2023-04-26T01:42:38.683Z,13.85
2023-04-26T01:45:08.305Z,12.77
2023-04-26T01:47:36.670Z,13.38
2023-04-26T01:50:05.465Z,14.02
2023-04-26T01:52:34.073Z,15.77
2023-04-26T01:55:02.384Z,13.73
2023-04-26T01:57:32.044Z,14.77
2023-04-26T02:00:02.475Z,14.87
2023-04-26T02:02:31.055Z,15.77
2023-04-26T02:04:59.539Z,14.67
2023-04-26T02:07:28.029Z,12.93
2023-04-26T02:09:56.502Z,13.80
2023-04-26T02:12:24.801Z,14.00
2023-04-26T02:14:54.634Z,16.30
2023-04-26T02:17:22.919Z,18.37
2023-04-26T02:19:54.910Z,16.40
2023-04-26T02:22:26.556Z,16.00
2023-04-26T02:24:55.035Z,16.30
2023-04-26T02:27:23.370Z,17.77
2023-04-26T02:29:51.735Z,18.58
2023-04-26T02:32:21.629Z,18.40
2023-04-26T02:34:49.986Z,17.47
2023-04-26T02:37:18.600Z,17.77
2023-04-26T02:39:50.650Z,17.35
2023-04-26T02:42:19.054Z,17.50
2023-04-26T02:44:47.353Z,18.20
2023-04-26T02:47:16.049Z,18.95
2023-04-26T02:49:45.763Z,16.97
2023-04-26T02:52:14.121Z,14.63
2023-04-26T02:54:42.468Z,15.93
2023-04-26T02:57:10.792Z,16.53
2023-04-26T02:59:39.152Z,17.27
2023-04-26T03:02:07.706Z,17.63
2023-04-26T03:04:37.083Z,18.13
2023-04-26T03:07:06.886Z,18.30
2023-04-26T03:09:38.232Z,18.43
2023-04-26T03:12:08.283Z,17.07
2023-04-26T03:14:37.099Z,17.27
2023-04-26T03:17:05.464Z,15.77
2023-04-26T03:19:33.754Z,17.67
2023-04-26T03:22:02.069Z,17.23
2023-04-26T03:24:31.872Z,17.40
2023-04-26T03:27:00.327Z,15.40
2023-04-26T03:29:28.783Z,17.97
2023-04-26T03:31:57.424Z,16.85
2023-04-26T03:34:27.361Z,17.65
2023-04-26T03:36:55.961Z,16.42
2023-04-26T03:39:24.606Z,17.35
2023-04-26T03:41:54.212Z,19.00
2023-04-26T03:44:22.723Z,19.47
2023-04-26T03:46:51.139Z,19.33
2023-04-26T03:49:19.447Z,19.23
2023-04-26T03:51:47.820Z,19.30
2023-04-26T03:54:16.799Z,20.73
2023-04-26T03:56:45.154Z,20.50
2023-04-26T03:59:15.026Z,20.30
2023-04-26T04:01:43.436Z,19.85
2023-04-26T04:04:11.961Z,21.40
2023-04-26T04:06:40.593Z,22.90
2023-04-26T04:09:09.252Z,20.60
2023-04-26T04:11:37.603Z,22.57
2023-04-26T04:14:05.882Z,20.92
2023-04-26T04:16:35.698Z,22.02
2023-04-26T04:19:04.249Z,20.50
2023-04-26T04:21:32.794Z,22.48
2023-04-26T04:24:01.358Z,21.08
2023-04-26T04:26:29.769Z,22.83
2023-04-26T04:29:00.657Z,22.80
2023-04-26T04:31:30.159Z,21.70
2023-04-26T04:33:59.799Z,21.15
2023-04-26T04:36:28.223Z,21.50
2023-04-26T04:38:56.779Z,26.65
2023-04-26T04:41:25.214Z,23.07
2023-04-26T04:43:54.233Z,23.35
2023-04-26T04:46:22.870Z,24.00
2023-04-26T04:48:51.445Z,23.13
2023-04-26T04:51:21.369Z,25.03
2023-04-26T04:53:49.890Z,23.63
2023-04-26T05:35:24.944Z,30.95
2023-04-26T05:37:53.333Z,26.42
2023-04-26T05:40:21.695Z,24.15
2023-04-26T05:42:50.044Z,24.73
2023-04-26T05:45:18.551Z,24.85
2023-04-26T05:47:47.670Z,23.05
2023-04-26T05:50:16.457Z,22.45
2023-04-26T05:52:46.176Z,23.48
2023-04-26T05:55:14.577Z,25.10
2023-04-26T05:57:42.996Z,25.40
2023-04-26T06:00:12.566Z,26.85
2023-04-26T06:02:41.053Z,25.33
2023-04-26T06:05:09.970Z,24.25
2023-04-26T06:07:39.513Z,22.13
2023-04-26T06:10:10.666Z,20.67
2023-04-26T06:12:39.336Z,19.48
2023-04-26T06:15:08.419Z,17.33
2023-04-26T06:17:36.910Z,17.75
2023-04-26T06:20:06.303Z,16.92
2023-04-26T06:22:34.598Z,17.05
2023-04-26T06:25:03.418Z,17.48
2023-04-26T06:27:33.343Z,15.48
2023-04-26T06:30:01.839Z,17.88
2023-04-26T06:32:30.525Z,16.52
2023-04-26T06:34:58.930Z,17.38
2023-04-26T06:37:27.380Z,16.30
2023-04-26T06:39:55.652Z,18.20
2023-04-26T06:42:24.012Z,16.77
2023-04-26T06:44:53.724Z,17.20
2023-04-26T06:47:22.277Z,16.40
2023-04-26T06:49:51.793Z,15.73
2023-04-26T06:52:21.600Z,12.52
2023-04-26T06:54:56.696Z,11.32
2023-04-26T06:57:26.069Z,10.32
2023-04-26T06:59:55.843Z,9.50
2023-04-26T07:02:24.688Z,11.75
2023-04-26T07:04:53.561Z,11.13
2023-04-26T07:07:22.779Z,10.30
2023-04-26T07:09:51.501Z,8.90
2023-04-26T07:12:20.082Z,8.52
2023-04-26T07:14:48.386Z,8.88
2023-04-26T07:17:18.399Z,8.20
2023-04-26T07:19:47.202Z,6.40
2023-04-26T07:22:15.556Z,6.00
2023-04-26T07:24:43.893Z,6.38
2023-04-26T07:27:12.244Z,4.85
2023-04-26T07:29:40.838Z,4.57
2023-04-26T07:32:09.619Z,5.00
2023-04-26T07:34:39.644Z,4.28
2023-04-26T07:37:08.343Z,4.03
2023-04-26T07:39:36.880Z,2.78
2023-04-26T07:42:06.438Z,3.50
2023-04-26T07:44:34.790Z,3.10
2023-04-26T07:47:04.432Z,3.08
2023-04-26T07:49:33.033Z,2.30
2023-04-26T07:52:03.039Z,2.25
2023-04-26T07:54:31.778Z,1.90
2023-04-26T07:57:00.762Z,2.03
2023-04-26T07:59:29.428Z,2.58
2023-04-26T08:01:58.036Z,2.10
2023-04-26T08:04:34.130Z,2.92
2023-04-26T08:07:04.325Z,2.00
2023-04-26T08:09:33.037Z,1.70
2023-04-26T08:12:01.681Z,1.80
2023-04-26T08:14:31.017Z,1.50
2023-04-26T08:16:59.432Z,1.48
2023-04-26T08:19:30.891Z,2.10
2023-04-26T08:21:59.264Z,1.52
2023-04-26T08:24:29.059Z,1.48
2023-04-26T08:26:58.620Z,0.50
2023-04-26T08:29:27.962Z,0.60
2023-04-26T08:31:56.666Z,0.98
2023-04-26T08:34:25.054Z,1.15
2023-04-26T08:36:53.349Z,1.88
2023-04-26T08:39:21.939Z,1.05
2023-04-26T08:41:55.788Z,1.50
2023-04-26T08:44:25.709Z,1.20
2023-04-26T08:47:02.923Z,1.30
2023-04-26T08:49:41.708Z,1.30
2023-04-26T08:52:12.638Z,1.40
2023-04-26T08:54:41.657Z,1.40
2023-04-26T08:57:11.705Z,1.88
2023-04-26T08:59:41.200Z,1.08
2023-04-26T09:02:12.122Z,1.17
2023-04-26T09:04:41.238Z,1.83
2023-04-26T09:07:11.269Z,1.20
2023-04-26T09:09:43.836Z,1.50
2023-04-26T09:12:13.508Z,1.08
2023-04-26T09:14:41.872Z,1.30
2023-04-26T09:17:32.022Z,1.48
2023-04-26T09:20:02.010Z,1.35
2023-04-26T09:22:34.965Z,1.60
2023-04-26T09:25:04.993Z,1.50
2023-04-26T09:27:36.245Z,1.83
2023-04-26T09:30:07.703Z,1.63
2023-04-26T09:32:46.773Z,1.55
2023-04-26T09:35:23.106Z,1.10
2023-04-26T09:37:59.139Z,1.65
2023-04-26T09:40:30.639Z,1.60
2023-04-26T09:43:05.984Z,1.25
2023-04-26T09:45:44.816Z,1.20
2023-04-26T09:48:23.041Z,0.80
2023-04-26T09:50:53.393Z,1.27
2023-04-26T09:53:31.044Z,1.23
2023-04-26T09:56:08.611Z,1.52
2023-04-26T09:58:39.710Z,1.50
2023-04-26T10:01:10.157Z,1.90
2023-04-26T10:03:39.107Z,2.03
2023-04-26T10:06:08.133Z,1.58
2023-04-26T10:08:37.417Z,1.30
2023-04-26T10:11:07.682Z,1.40
2023-04-26T10:13:36.400Z,1.63
2023-04-26T10:16:07.289Z,1.52
2023-04-26T10:18:35.930Z,1.67
2023-04-26T10:21:12.046Z,1.80
2023-04-26T10:23:41.584Z,1.88
2023-04-26T10:26:49.589Z,1.92
2023-04-26T10:29:18.050Z,1.92
2023-04-26T10:32:12.114Z,2.20
2023-04-26T10:34:41.765Z,1.63
2023-04-26T10:37:11.935Z,1.92
2023-04-26T10:39:41.069Z,1.70
2023-04-26T10:42:26.733Z,1.52
2023-04-26T10:44:56.510Z,1.60
2023-04-26T10:47:31.773Z,1.27
2023-04-26T10:50:06.175Z,1.67
2023-04-26T10:52:34.893Z,1.50
2023-04-26T10:55:06.478Z,1.55
2023-04-26T10:57:49.762Z,1.70
2023-04-26T11:00:21.086Z,1.42
2023-04-26T11:03:07.107Z,1.55
2023-04-26T11:05:56.030Z,2.22
2023-04-26T11:08:30.332Z,1.15
2023-04-26T11:11:06.627Z,1.35
2023-04-26T11:13:36.756Z,1.58
2023-04-26T11:16:07.150Z,1.55
2023-04-26T11:18:38.950Z,1.55
2023-04-26T11:21:08.222Z,1.88
2023-04-26T11:23:37.419Z,1.77
2023-04-26T11:26:08.424Z,1.80
2023-04-26T11:28:38.957Z,1.88
2023-04-26T11:31:08.415Z,1.35
2023-04-26T11:33:38.261Z,1.05
2023-04-26T11:36:07.236Z,1.50
2023-04-26T11:38:35.638Z,1.30
2023-04-26T11:41:05.424Z,1.83
2023-04-26T11:43:37.657Z,1.85
2023-04-26T11:46:07.201Z,1.75
2023-04-26T11:48:38.316Z,1.85
2023-04-26T11:51:08.236Z,1.63
2023-04-26T11:53:38.165Z,1.42
2023-04-26T11:56:15.443Z,2.13
2023-04-26T11:58:46.659Z,1.88
2023-04-26T12:01:22.203Z,2.30
2023-04-26T12:03:54.636Z,1.48
2023-04-26T12:06:30.520Z,1.38
2023-04-26T12:08:59.082Z,1.00
2023-04-26T12:11:28.195Z,1.13
2023-04-26T12:13:59.663Z,1.55
2023-04-26T12:16:28.062Z,1.20
2023-04-26T12:18:58.212Z,1.40
2023-04-26T12:21:30.318Z,1.73
2023-04-26T12:23:59.519Z,0.82
2023-04-26T12:26:43.887Z,1.25
2023-04-26T12:29:12.224Z,1.95
2023-04-26T12:31:40.772Z,1.63
2023-04-26T12:34:10.751Z,2.10
2023-04-26T12:36:41.822Z,1.63
2023-04-26T12:39:11.443Z,0.98
2023-04-26T12:41:39.806Z,1.38
2023-04-26T12:44:09.030Z,1.25
2023-04-26T12:46:37.737Z,2.08
2023-04-26T12:49:06.331Z,2.30
2023-04-26T12:51:36.053Z,2.28
2023-04-26T12:54:04.528Z,2.45
2023-04-26T12:56:32.942Z,2.72
2023-04-26T12:59:01.288Z,2.25
2023-04-26T13:01:29.809Z,2.88
2023-04-26T13:03:59.904Z,2.05
2023-04-26T13:06:28.749Z,2.13
2023-04-26T13:08:58.482Z,2.70
2023-04-26T13:11:26.867Z,2.33
2023-04-26T13:13:55.297Z,3.00
2023-04-26T13:16:23.893Z,2.80
2023-04-26T13:18:52.367Z,2.75
2023-04-26T13:21:20.712Z,2.72
2023-04-26T13:23:49.042Z,2.80
2023-04-26T13:26:18.877Z,2.50
2023-04-26T13:28:47.701Z,2.85
2023-04-26T13:31:17.576Z,2.42
2023-04-26T13:33:47.400Z,2.30
2023-04-26T13:36:16.711Z,3.15
2023-04-26T13:38:45.903Z,3.45
2023-04-26T13:41:14.402Z,4.75
2023-04-26T13:43:44.219Z,3.70
2023-04-26T13:46:12.617Z,4.03
2023-04-26T13:48:41.328Z,3.60
2023-04-26T13:51:10.278Z,5.72
2023-04-26T13:53:38.825Z,4.32
2023-04-26T13:56:09.513Z,4.05
2023-04-26T13:58:38.096Z,4.32
2023-04-26T14:01:08.180Z,2.75
2023-04-26T14:03:37.029Z,2.53
2023-04-26T14:06:05.889Z,3.47
2023-04-26T14:08:34.293Z,3.47
2023-04-26T14:11:02.698Z,3.30
2023-04-26T14:13:31.254Z,3.67
2023-04-26T14:15:59.884Z,3.65
2023-04-26T14:18:29.882Z,3.60
2023-04-26T14:20:58.488Z,3.85
2023-04-26T14:23:27.120Z,2.85
2023-04-26T14:25:55.953Z,3.10
2023-04-26T14:28:24.744Z,2.70
2023-04-26T14:30:53.299Z,3.05
2023-04-26T14:33:23.692Z,2.28
2023-04-26T14:35:56.600Z,2.40
2023-04-26T14:38:25.105Z,2.53
2023-04-26T14:40:53.547Z,2.95
2023-04-26T14:43:21.943Z,2.92
2023-04-26T14:45:50.395Z,3.47
2023-04-26T14:48:19.311Z,2.95
2023-04-26T14:50:47.992Z,3.15
2023-04-26T14:53:17.635Z,3.08
2023-04-26T14:55:46.008Z,3.13
2023-04-26T14:58:14.447Z,2.20
2023-04-26T15:00:43.218Z,2.05
2023-04-26T15:03:12.196Z,1.77
2023-04-26T15:05:41.033Z,1.73
2023-04-26T15:08:09.396Z,2.47
2023-04-26T15:10:39.228Z,1.73
2023-04-26T15:13:07.750Z,1.70
2023-04-26T15:15:36.135Z,1.58
2023-04-26T15:18:04.685Z,1.30
2023-04-26T15:20:33.084Z,1.83
2023-04-26T15:23:01.412Z,1.50
2023-04-26T15:25:29.795Z,1.63
2023-04-26T15:27:59.433Z,1.50
2023-04-26T15:30:30.102Z,1.50
2023-04-26T15:32:58.825Z,1.38
2023-04-26T15:35:27.409Z,1.20
2023-04-26T15:37:55.984Z,1.05
2023-04-26T15:40:24.659Z,1.40
2023-04-26T15:42:53.183Z,1.42
2023-04-26T15:45:23.118Z,1.13
2023-04-26T15:47:51.499Z,1.35
2023-04-26T15:50:19.944Z,1.05
2023-04-26T15:52:48.346Z,1.10
2023-04-26T15:55:16.890Z,1.35
2023-04-26T15:57:45.219Z,1.40
2023-04-26T16:00:15.132Z,1.77
2023-04-26T16:02:45.244Z,1.70
2023-04-26T16:05:16.570Z,1.35
2023-04-26T16:07:45.046Z,1.45
2023-04-26T16:10:14.251Z,1.35
2023-04-26T16:12:44.469Z,1.33
2023-04-26T16:15:13.023Z,1.30
2023-04-26T16:17:41.697Z,1.30
2023-04-26T16:20:12.276Z,1.30
2023-04-26T16:22:40.632Z,1.20
2023-04-26T16:25:09.569Z,1.23
2023-04-26T16:27:38.378Z,1.33
2023-04-26T16:30:07.838Z,0.82
2023-04-26T16:32:36.411Z,1.20
2023-04-26T16:35:05.178Z,0.82
2023-04-26T16:37:34.880Z,1.50
2023-04-26T16:40:05.221Z,1.70
2023-04-26T16:42:33.667Z,1.23
2023-04-26T16:45:02.012Z,1.35
2023-04-26T16:47:30.320Z,0.88
2023-04-26T16:49:58.933Z,1.17
2023-04-26T16:52:27.500Z,1.45
2023-04-26T16:54:57.498Z,1.48
2023-04-26T16:57:26.351Z,2.28
2023-04-26T16:59:54.738Z,2.10
2023-04-26T17:02:23.383Z,1.42
2023-04-26T17:04:53.089Z,1.38
2023-04-26T17:07:22.184Z,2.03
2023-04-26T17:09:55.083Z,2.10
2023-04-26T17:12:25.097Z,2.28
2023-04-26T17:14:53.674Z,1.67
2023-04-26T17:17:21.997Z,2.45
2023-04-26T17:19:50.337Z,2.60
2023-04-26T17:22:18.871Z,2.80
2023-04-26T17:24:47.274Z,2.25
2023-04-26T17:27:15.611Z,1.83
2023-04-26T17:29:45.795Z,1.80
2023-04-26T17:32:14.290Z,1.70
2023-04-26T17:34:43.304Z,1.83
2023-04-26T17:37:11.598Z,1.30
2023-04-26T17:39:40.002Z,1.58
2023-04-26T17:42:08.368Z,1.73
2023-04-26T17:44:36.633Z,2.10
2023-04-26T17:47:06.889Z,2.67
2023-04-26T17:49:35.202Z,2.17
2023-04-26T17:52:04.202Z,1.88
2023-04-26T17:54:32.876Z,1.73
2023-04-26T17:57:01.506Z,1.95
2023-04-26T17:59:29.884Z,2.20
2023-04-26T18:01:58.540Z,2.13
2023-04-26T18:04:28.688Z,2.08
2023-04-26T18:06:57.282Z,2.20
2023-04-26T18:09:25.825Z,1.40
2023-04-26T18:11:54.665Z,1.88
2023-04-26T18:14:25.041Z,1.20
2023-04-26T18:16:53.565Z,1.33
2023-04-26T18:19:21.930Z,1.30
2023-04-26T18:21:53.616Z,1.70
2023-04-26T18:24:22.272Z,1.52
2023-04-26T18:26:50.870Z,1.00
2023-04-26T18:29:19.703Z,1.10
2023-04-26T18:31:49.684Z,0.95
2023-04-26T18:34:18.099Z,1.02
2023-04-26T18:36:46.487Z,1.00
2023-04-26T18:39:16.211Z,1.42
2023-04-26T18:41:44.637Z,1.30
2023-04-26T18:44:14.360Z,1.40
2023-04-26T18:46:43.486Z,1.60
2023-04-26T18:49:12.259Z,1.13
2023-04-26T18:51:40.854Z,1.20
2023-04-26T18:54:09.449Z,2.30
2023-04-26T18:56:39.596Z,2.25
2023-04-26T18:59:08.073Z,2.53
2023-04-26T19:01:36.879Z,2.95
2023-04-26T19:04:05.516Z,2.40
2023-04-26T19:06:33.984Z,2.17
2023-04-26T19:09:02.542Z,3.10
2023-04-26T19:11:31.282Z,3.05
2023-04-26T19:14:01.023Z,2.50
2023-04-26T19:16:29.729Z,3.33
2023-04-26T19:18:58.881Z,2.75
2023-04-26T19:21:27.194Z,3.40
2023-04-26T19:23:55.654Z,4.30
2023-04-26T19:26:24.009Z,3.30
2023-04-26T19:28:52.353Z,3.35
2023-04-26T19:31:22.261Z,4.15
2023-04-26T19:33:50.601Z,4.75
2023-04-26T19:36:18.920Z,3.80
2023-04-26T19:38:48.520Z,4.22
2023-04-26T19:41:16.900Z,4.30
2023-04-26T19:43:45.400Z,4.00
2023-04-26T19:46:14.097Z,4.40
2023-04-26T19:48:43.995Z,4.57
2023-04-26T19:51:16.980Z,4.82
2023-04-26T19:53:45.534Z,4.63
2023-04-26T19:56:14.058Z,4.28
2023-04-26T19:58:42.882Z,4.78
2023-04-26T20:01:11.331Z,5.13
2023-04-26T20:03:41.639Z,4.97
2023-04-26T20:06:13.994Z,4.82
2023-04-26T20:08:43.563Z,5.20
2023-04-26T20:11:15.152Z,4.70
2023-04-26T20:13:43.599Z,5.50
2023-04-26T20:16:12.607Z,5.30
2023-04-26T20:18:41.075Z,5.13
2023-04-26T20:21:09.462Z,4.65
2023-04-26T20:23:39.167Z,4.85
2023-04-26T20:26:07.561Z,4.90
2023-04-26T20:28:37.481Z,4.72
2023-04-26T20:31:07.320Z,4.70
2023-04-26T20:33:35.686Z,4.72
2023-04-26T20:36:04.256Z,5.30
2023-04-26T20:38:32.893Z,5.10
2023-04-26T20:41:02.622Z,4.60
2023-04-26T20:43:31.008Z,5.55
2023-04-26T20:45:59.479Z,4.90
2023-04-26T20:48:27.813Z,5.07
2023-04-26T20:50:57.111Z,4.55
2023-04-26T20:53:25.735Z,4.68
2023-04-26T20:55:54.286Z,4.22
2023-04-26T20:58:24.319Z,4.50
2023-04-26T21:00:54.012Z,3.70
2023-04-26T21:03:22.857Z,4.75
2023-04-26T21:05:53.560Z,4.25
2023-04-26T21:08:21.981Z,3.83
2023-04-26T21:10:50.465Z,3.50
2023-04-26T21:13:18.775Z,3.88
2023-04-26T21:15:49.696Z,4.20
2023-04-26T21:18:18.039Z,5.18
2023-04-26T21:20:46.426Z,4.60
2023-04-26T21:23:14.756Z,4.45
2023-04-26T21:25:46.572Z,4.95
2023-04-26T21:28:15.246Z,4.43
2023-04-26T21:30:43.596Z,4.90
2023-04-26T21:33:15.927Z,4.60
2023-04-26T21:35:44.357Z,5.13
2023-04-26T21:38:12.754Z,4.97
2023-04-26T21:40:41.025Z,5.63
2023-04-26T21:43:09.361Z,4.75
2023-04-26T21:45:37.731Z,5.85
2023-04-26T21:48:06.747Z,5.55
2023-04-26T21:50:36.990Z,5.05
2023-04-26T21:53:05.946Z,6.45
2023-04-26T21:55:34.586Z,5.53
2023-04-26T21:58:03.148Z,6.43
2023-04-26T22:00:31.864Z,6.65
2023-04-26T22:03:00.694Z,6.63
2023-04-26T22:05:29.388Z,6.63
2023-04-26T22:07:59.332Z,7.60
2023-04-26T22:10:27.709Z,7.18
2023-04-26T22:12:56.358Z,7.78
2023-04-26T22:15:24.793Z,7.97
2023-04-26T22:17:53.142Z,8.35
2023-04-26T22:20:21.601Z,8.18
2023-04-26T22:22:49.947Z,8.95
2023-04-26T22:25:19.664Z,8.68
2023-04-26T22:27:48.277Z,8.57
2023-04-26T22:30:25.382Z,8.20
2023-04-26T22:32:55.712Z,8.68
2023-04-26T22:35:25.239Z,8.32
2023-04-26T22:37:53.789Z,7.63
2023-04-26T22:40:23.524Z,7.68
2023-04-26T22:42:51.821Z,8.15
2023-04-26T22:45:20.638Z,7.97
2023-04-26T22:47:48.988Z,7.55
2023-04-26T22:50:17.401Z,6.68
2023-04-26T22:52:45.785Z,6.97
2023-04-26T22:55:14.037Z,7.75
2023-04-26T22:57:43.857Z,7.25
2023-04-26T23:00:14.623Z,7.47
2023-04-26T23:02:43.547Z,8.25
2023-04-26T23:05:12.436Z,8.50
2023-04-26T23:07:41.516Z,8.07
2023-04-26T23:10:10.610Z,8.45
2023-04-26T23:12:40.718Z,9.27
2023-04-26T23:15:11.737Z,9.18
2023-04-26T23:17:41.865Z,8.90
2023-04-26T23:20:14.119Z,8.93
2023-04-26T23:22:43.107Z,9.13
2023-04-26T23:25:12.115Z,10.38
2023-04-26T23:27:40.923Z,9.27
2023-04-26T23:30:13.867Z,10.43
2023-04-26T23:32:42.518Z,9.98
2023-04-26T23:35:11.713Z,10.25
2023-04-26T23:37:40.362Z,10.13
2023-04-26T23:40:10.379Z,9.93
2023-04-26T23:42:38.737Z,10.18
2023-04-26T23:45:09.214Z,11.38
2023-04-26T23:47:38.946Z,11.60
2023-04-26T23:50:08.973Z,10.38
2023-04-26T23:52:37.414Z,11.82
2023-04-26T23:55:06.759Z,11.40
2023-04-26T23:57:35.888Z,12.25
